Time;durP1;ratioP1;P1;durP2;ratioP2;P2;SDS_P1;SDS_P2;PMS_P1;PMS_P2;Temp;Humidity;BMP_temperature;BMP_pressure;BME280_temperature;BME280_humidity;BME280_pressure;Samples;Min_cycle;Max_cycle;Signal;HPM_P1;HPM_P2
2023/07/18 00:00:14;;;;;;;4.77;3.33;;;14.80;99.90;;;;;;5073304;28;20197;-74
2023/07/18 00:02:42;;;;;;;6.20;3.37;;;14.70;99.90;;;;;;5073234;28;20215;-74
2023/07/18 00:05:12;;;;;;;7.30;3.90;;;14.60;99.90;;;;;;5072980;28;20567;-75
2023/07/18 00:07:40;;;;;;;4.33;3.23;;;14.50;99.90;;;;;;5073012;28;20227;-74
2023/07/18 00:10:09;;;;;;;4.93;3.53;;;14.50;99.90;;;;;;5073144;28;20207;-75
2023/07/18 00:12:36;;;;;;;7.90;3.40;;;14.50;99.90;;;;;;5073022;28;20224;-75
2023/07/18 00:15:04;;;;;;;4.77;3.30;;;14.40;99.90;;;;;;5073016;28;20196;-75
2023/07/18 00:17:31;;;;;;;8.87;3.63;;;14.40;99.90;;;;;;5072991;28;20246;-74
2023/07/18 00:19:59;;;;;;;6.57;3.30;;;14.50;99.90;;;;;;5072834;28;20283;-74
2023/07/18 00:22:25;;;;;;;7.13;3.00;;;14.80;99.90;;;;;;5072612;28;20683;-75
2023/07/18 00:24:52;;;;;;;4.93;3.07;;;14.80;99.90;;;;;;5073050;28;20266;-75
2023/07/18 00:27:20;;;;;;;6.27;3.20;;;14.60;99.90;;;;;;5072917;28;20200;-75
2023/07/18 00:29:47;;;;;;;6.50;3.93;;;14.40;99.90;;;;;;5072901;28;20246;-74
2023/07/18 00:32:14;;;;;;;4.77;3.20;;;14.20;99.90;;;;;;5072693;28;20220;-75
2023/07/18 00:34:41;;;;;;;6.23;3.27;;;14.10;99.90;;;;;;5072734;28;20197;-74
2023/07/18 00:37:08;;;;;;;7.33;3.33;;;14.00;99.90;;;;;;5072681;28;20197;-75
2023/07/18 00:39:34;;;;;;;5.50;3.80;;;13.90;99.90;;;;;;5072942;28;20196;-75
2023/07/18 00:42:01;;;;;;;3.73;3.43;;;13.90;99.90;;;;;;5072572;28;20287;-75
2023/07/18 00:44:29;;;;;;;4.57;3.37;;;13.90;99.90;;;;;;5072647;28;20201;-75
2023/07/18 00:46:56;;;;;;;6.30;3.70;;;13.80;99.90;;;;;;5072696;28;20318;-74
2023/07/18 00:49:23;;;;;;;8.53;3.50;;;13.70;99.90;;;;;;5072437;28;20266;-75
2023/07/18 00:51:50;;;;;;;9.10;3.73;;;13.60;99.90;;;;;;5072320;28;20217;-74
2023/07/18 00:54:17;;;;;;;5.70;3.90;;;13.70;99.90;;;;;;5072882;28;20197;-74
2023/07/18 00:56:44;;;;;;;7.03;4.17;;;13.60;99.90;;;;;;5072506;28;20312;-75
2023/07/18 00:59:13;;;;;;;5.37;3.93;;;13.60;99.90;;;;;;5072471;28;20721;-74
2023/07/18 01:01:41;;;;;;;13.03;4.70;;;13.60;99.90;;;;;;5072672;28;20209;-74
2023/07/18 01:04:08;;;;;;;6.30;3.67;;;13.80;99.90;;;;;;5072539;28;20193;-74
2023/07/18 01:06:36;;;;;;;9.37;3.60;;;13.90;99.90;;;;;;5072791;28;20284;-75
2023/07/18 01:09:05;;;;;;;5.53;3.97;;;14.00;99.90;;;;;;5072469;28;20204;-73
2023/07/18 01:11:31;;;;;;;6.77;3.97;;;13.80;99.90;;;;;;5072544;28;20203;-73
2023/07/18 01:13:58;;;;;;;6.83;4.50;;;13.80;99.90;;;;;;5072426;28;20197;-74
2023/07/18 01:16:25;;;;;;;6.83;4.33;;;13.80;99.90;;;;;;5072575;28;20205;-74
2023/07/18 01:18:53;;;;;;;6.97;4.53;;;13.90;99.90;;;;;;5072500;28;20197;-74
2023/07/18 01:21:22;;;;;;;7.33;4.30;;;13.80;99.90;;;;;;5072496;28;20272;-74
2023/07/18 01:23:50;;;;;;;6.50;4.77;;;13.70;99.90;;;;;;5072233;28;20640;-74
2023/07/18 01:26:17;;;;;;;6.80;4.00;;;13.40;99.90;;;;;;5072356;28;20201;-74
2023/07/18 01:28:44;;;;;;;6.60;4.30;;;13.30;99.90;;;;;;5072113;28;20202;-74
2023/07/18 01:31:11;;;;;;;7.37;3.97;;;13.20;99.90;;;;;;5072100;28;20198;-74
2023/07/18 01:33:38;;;;;;;8.93;4.37;;;13.10;99.90;;;;;;5072189;28;20225;-74
2023/07/18 01:36:06;;;;;;;7.53;4.20;;;13.10;99.90;;;;;;5072298;28;20250;-74
2023/07/18 01:38:35;;;;;;;9.30;4.30;;;13.00;99.90;;;;;;5072041;28;20208;-73
2023/07/18 01:41:02;;;;;;;6.67;4.83;;;12.90;99.90;;;;;;5072098;28;20255;-74
2023/07/18 01:43:28;;;;;;;7.17;4.57;;;12.90;99.90;;;;;;5072104;28;20197;-74
2023/07/18 01:45:59;;;;;;;7.53;4.40;;;12.80;99.90;;;;;;5071969;28;20216;-73
2023/07/18 01:48:26;;;;;;;8.60;5.23;;;13.10;99.90;;;;;;5072307;28;20201;-74
2023/07/18 01:50:52;;;;;;;6.73;4.47;;;13.00;99.90;;;;;;5071851;28;20568;-74
2023/07/18 01:53:19;;;;;;;6.83;4.30;;;13.10;99.90;;;;;;5071905;28;20292;-74
2023/07/18 01:55:47;;;;;;;7.53;4.67;;;13.10;99.90;;;;;;5071912;28;20201;-74
2023/07/18 01:58:14;;;;;;;8.20;4.37;;;12.90;99.90;;;;;;5071842;28;20204;-73
2023/07/18 02:00:40;;;;;;;5.37;3.93;;;12.80;99.90;;;;;;5072079;28;20194;-74
2023/07/18 02:03:07;;;;;;;9.23;4.80;;;12.60;99.90;;;;;;5075346;28;20209;-74
2023/07/18 02:05:34;;;;;;;7.27;4.27;;;12.50;99.90;;;;;;5075519;28;20525;-73
2023/07/18 02:08:01;;;;;;;6.30;4.50;;;12.40;99.90;;;;;;5075422;28;20542;-73
2023/07/18 02:10:28;;;;;;;8.43;4.33;;;12.40;99.90;;;;;;5075360;28;20239;-73
2023/07/18 02:12:58;;;;;;;7.03;4.70;;;12.40;99.90;;;;;;5075035;28;20233;-79
2023/07/18 02:15:24;;;;;;;6.97;4.67;;;12.50;99.90;;;;;;5075849;28;20296;-74
2023/07/18 02:17:52;;;;;;;7.43;5.10;;;12.50;99.90;;;;;;5075258;28;20200;-73
2023/07/18 02:20:19;;;;;;;8.30;4.40;;;12.40;99.90;;;;;;5075236;28;20283;-74
2023/07/18 02:22:46;;;;;;;5.37;4.53;;;12.20;99.90;;;;;;5075070;28;20721;-74
2023/07/18 02:25:17;;;;;;;7.27;5.23;;;12.10;99.90;;;;;;5074956;28;20201;-74
2023/07/18 02:27:44;;;;;;;5.93;4.30;;;12.50;99.90;;;;;;5074998;28;20204;-74
2023/07/18 02:30:13;;;;;;;6.50;4.83;;;12.50;99.90;;;;;;5075146;28;20208;-74
2023/07/18 02:32:41;;;;;;;7.57;4.47;;;12.50;99.90;;;;;;5075073;28;20716;-74
2023/07/18 02:35:09;;;;;;;16.33;4.70;;;12.40;99.90;;;;;;5074875;28;20201;-74
2023/07/18 02:37:36;;;;;;;8.73;4.67;;;12.60;99.90;;;;;;5074733;28;20711;-75
2023/07/18 02:40:08;;;;;;;7.03;4.73;;;12.70;99.90;;;;;;5074724;28;20706;-74
2023/07/18 02:42:34;;;;;;;6.47;4.33;;;12.80;99.90;;;;;;5074922;28;20203;-74
2023/07/18 02:45:01;;;;;;;6.77;4.50;;;12.80;99.90;;;;;;5074629;28;20657;-74
2023/07/18 02:47:30;;;;;;;5.97;4.83;;;12.60;99.90;;;;;;5074753;28;20200;-74
2023/07/18 02:49:56;;;;;;;6.40;5.07;;;12.40;99.90;;;;;;5074664;28;20239;-74
2023/07/18 02:52:23;;;;;;;7.77;4.80;;;12.20;99.90;;;;;;5074393;28;20224;-74
2023/07/18 02:54:50;;;;;;;8.37;4.57;;;12.10;99.90;;;;;;5074673;28;20200;-74
2023/07/18 02:57:17;;;;;;;6.03;4.60;;;12.10;99.90;;;;;;5074540;28;20264;-74
2023/07/18 02:59:44;;;;;;;6.47;4.20;;;12.10;99.90;;;;;;5074430;28;20193;-74
2023/07/18 03:02:11;;;;;;;6.83;4.53;;;12.40;99.90;;;;;;5074381;28;20283;-74
2023/07/18 03:04:39;;;;;;;9.03;4.20;;;12.40;99.90;;;;;;5074584;28;20201;-74
2023/07/18 03:07:07;;;;;;;7.77;4.50;;;12.50;99.90;;;;;;5074201;28;20425;-75
2023/07/18 03:09:34;;;;;;;7.67;4.63;;;12.40;99.90;;;;;;5074396;28;20208;-74
2023/07/18 03:12:01;;;;;;;7.20;4.33;;;12.30;99.90;;;;;;5073961;28;20197;-74
2023/07/18 03:14:29;;;;;;;6.57;4.27;;;12.20;99.90;;;;;;5073080;28;20201;-74
2023/07/18 03:16:55;;;;;;;5.83;4.73;;;12.20;99.90;;;;;;5074259;28;20197;-73
2023/07/18 03:19:22;;;;;;;6.93;4.23;;;12.30;99.90;;;;;;5073894;28;20201;-73
2023/07/18 03:21:50;;;;;;;8.83;4.57;;;12.40;99.90;;;;;;5073960;28;20722;-74
2023/07/18 03:24:17;;;;;;;6.83;4.10;;;12.50;99.90;;;;;;5074020;28;20209;-73
2023/07/18 03:26:43;;;;;;;7.33;4.07;;;12.40;99.90;;;;;;5073922;28;20266;-74
2023/07/18 03:29:10;;;;;;;5.87;4.00;;;12.30;99.90;;;;;;5073881;28;20201;-73
2023/07/18 03:31:39;;;;;;;8.13;3.90;;;12.10;99.90;;;;;;5073740;28;20206;-73
2023/07/18 03:34:06;;;;;;;5.20;4.07;;;12.00;99.90;;;;;;5073537;28;20233;-74
2023/07/18 03:36:33;;;;;;;6.83;4.07;;;11.90;99.90;;;;;;5073804;28;20203;-73
2023/07/18 03:39:01;;;;;;;4.73;3.80;;;11.90;99.90;;;;;;5073761;28;20243;-73
2023/07/18 03:41:27;;;;;;;7.23;3.73;;;11.90;99.90;;;;;;5073514;28;20197;-74
2023/07/18 03:43:54;;;;;;;5.63;4.00;;;12.00;99.90;;;;;;5073768;28;20296;-73
2023/07/18 03:46:21;;;;;;;9.87;4.67;;;12.20;99.90;;;;;;5073414;28;20266;-74
2023/07/18 03:48:48;;;;;;;6.67;4.07;;;12.30;99.90;;;;;;5073646;28;20231;-74
2023/07/18 03:51:15;;;;;;;5.70;3.90;;;12.20;99.90;;;;;;5073551;28;20267;-74
2023/07/18 03:53:41;;;;;;;6.60;4.03;;;12.20;99.90;;;;;;5073252;28;20315;-75
2023/07/18 03:56:09;;;;;;;8.87;4.60;;;12.30;99.90;;;;;;5073156;28;20241;-75
2023/07/18 03:58:36;;;;;;;6.63;4.17;;;12.30;99.90;;;;;;5073440;28;20199;-75
2023/07/18 04:01:10;;;;;;;6.37;4.17;;;12.30;99.90;;;;;;5073326;28;20197;-75
2023/07/18 04:03:37;;;;;;;6.53;4.03;;;12.20;99.90;;;;;;5073310;28;20288;-75
2023/07/18 04:06:05;;;;;;;4.80;3.73;;;12.50;99.90;;;;;;5072956;28;20565;-75
2023/07/18 04:08:32;;;;;;;9.87;4.30;;;12.70;99.90;;;;;;5073127;28;20211;-75
2023/07/18 04:10:59;;;;;;;4.90;3.63;;;12.70;99.90;;;;;;5072858;28;20652;-74
2023/07/18 04:13:27;;;;;;;5.40;4.03;;;12.60;99.90;;;;;;5072922;28;20227;-75
2023/07/18 04:15:55;;;;;;;7.57;4.20;;;12.80;99.90;;;;;;5073013;28;20258;-75
2023/07/18 04:18:21;;;;;;;8.33;4.07;;;12.90;99.90;;;;;;5074834;28;20271;-75
2023/07/18 04:20:49;;;;;;;5.77;3.83;;;12.80;99.90;;;;;;5073024;28;20752;-75
2023/07/18 04:23:16;;;;;;;6.63;4.10;;;12.80;99.90;;;;;;5083079;28;20211;-75
2023/07/18 04:25:56;;;;;;;8.00;4.33;;;12.70;99.90;;;;;;5092642;28;20192;-74
2023/07/18 04:28:23;;;;;;;5.90;4.40;;;12.70;99.90;;;;;;5092826;28;20208;-74
2023/07/18 04:30:51;;;;;;;6.67;4.57;;;12.70;99.90;;;;;;5093119;28;20200;-75
2023/07/18 04:33:17;;;;;;;6.93;4.30;;;12.70;99.90;;;;;;5092832;28;20228;-74
2023/07/18 04:35:45;;;;;;;7.70;4.70;;;12.80;99.90;;;;;;5092927;28;20196;-74
2023/07/18 04:38:12;;;;;;;8.07;4.67;;;13.10;99.90;;;;;;5092740;28;20203;-75
2023/07/18 04:40:38;;;;;;;8.07;4.50;;;13.20;99.90;;;;;;5092546;28;20219;-74
2023/07/18 04:43:05;;;;;;;7.00;5.00;;;13.40;99.90;;;;;;5092517;28;20597;-74
2023/07/18 04:45:32;;;;;;;11.37;4.90;;;13.50;99.90;;;;;;5092935;28;20260;-74
2023/07/18 04:48:00;;;;;;;6.90;4.80;;;13.60;99.90;;;;;;5092570;28;20203;-74
2023/07/18 04:50:28;;;;;;;7.00;4.20;;;13.70;99.90;;;;;;5092768;28;20290;-74
2023/07/18 04:52:55;;;;;;;5.80;4.87;;;13.60;99.90;;;;;;5092495;28;20277;-74
2023/07/18 04:55:21;;;;;;;5.60;4.63;;;13.80;99.90;;;;;;5089602;28;20268;-74
2023/07/18 04:57:48;;;;;;;5.83;4.57;;;13.80;99.90;;;;;;5072224;28;20254;-74
2023/07/18 05:00:15;;;;;;;6.87;4.43;;;13.70;99.90;;;;;;5072429;28;20204;-74
2023/07/18 05:02:42;;;;;;;8.93;4.73;;;13.70;99.90;;;;;;5072523;28;20196;-74
2023/07/18 05:05:10;;;;;;;7.73;4.30;;;13.80;99.90;;;;;;5072407;28;20205;-74
2023/07/18 05:07:37;;;;;;;7.53;4.63;;;13.90;99.90;;;;;;5072281;28;20251;-74
2023/07/18 05:10:05;;;;;;;8.33;3.90;;;14.00;99.90;;;;;;5072287;28;20201;-74
2023/07/18 05:12:32;;;;;;;9.93;4.00;;;14.10;99.90;;;;;;5072362;28;20200;-74
2023/07/18 05:14:59;;;;;;;7.40;4.17;;;14.30;99.90;;;;;;5072299;28;20231;-74
2023/07/18 05:17:25;;;;;;;6.37;4.30;;;14.40;99.90;;;;;;5072028;28;20254;-74
2023/07/18 05:19:52;;;;;;;7.60;4.57;;;14.50;99.90;;;;;;5072113;28;20599;-74
2023/07/18 05:22:20;;;;;;;7.50;4.27;;;14.60;99.90;;;;;;5072039;28;20254;-74
2023/07/18 05:24:46;;;;;;;5.80;4.10;;;14.70;99.90;;;;;;5072345;28;20266;-75
2023/07/18 05:27:13;;;;;;;6.93;4.23;;;14.70;99.90;;;;;;5072088;28;20250;-74
2023/07/18 05:29:40;;;;;;;7.43;4.70;;;14.80;99.90;;;;;;5072142;28;20200;-74
2023/07/18 05:32:07;;;;;;;8.70;4.40;;;14.90;99.90;;;;;;5072247;28;20267;-74
2023/07/18 05:34:34;;;;;;;6.27;4.33;;;15.00;99.90;;;;;;5072050;28;20221;-75
2023/07/18 05:37:01;;;;;;;11.33;4.67;;;15.20;99.90;;;;;;5073422;28;20653;-75
2023/07/18 05:39:29;;;;;;;8.67;4.57;;;15.30;99.90;;;;;;5076196;28;20279;-75
2023/07/18 05:41:56;;;;;;;7.03;4.87;;;15.50;99.90;;;;;;5075968;28;20665;-75
2023/07/18 05:44:23;;;;;;;7.67;4.23;;;15.70;99.90;;;;;;5075726;28;20653;-75
2023/07/18 05:46:49;;;;;;;7.57;4.63;;;15.80;99.90;;;;;;5075851;28;20200;-74
2023/07/18 05:49:16;;;;;;;8.23;3.90;;;15.90;99.90;;;;;;5075709;28;20197;-75
2023/07/18 05:51:43;;;;;;;6.67;4.37;;;16.10;99.90;;;;;;5075702;28;20313;-76
2023/07/18 05:54:09;;;;;;;6.87;4.30;;;16.30;99.90;;;;;;5075732;28;20282;-75
2023/07/18 05:56:37;;;;;;;7.55;5.05;;;16.40;99.90;;;;;;5075436;28;20224;-75
2023/07/18 05:59:06;;;;;;;7.28;4.60;;;16.50;99.90;;;;;;5075608;28;20276;-74
2023/07/18 06:01:33;;;;;;;5.43;4.05;;;16.60;99.90;;;;;;5075477;28;20212;-75
2023/07/18 06:04:00;;;;;;;7.57;4.30;;;16.70;99.90;;;;;;5075536;28;20204;-75
2023/07/18 06:06:27;;;;;;;5.50;3.95;;;16.80;99.90;;;;;;5075709;28;20212;-75
2023/07/18 06:08:54;;;;;;;7.97;4.30;;;16.90;99.90;;;;;;5075773;28;20196;-75
2023/07/18 06:11:21;;;;;;;8.52;4.13;;;17.00;99.90;;;;;;5075404;28;20197;-75
2023/07/18 06:13:50;;;;;;;5.15;4.10;;;17.10;99.90;;;;;;5075329;28;20231;-75
2023/07/18 06:16:17;;;;;;;6.05;3.97;;;17.20;99.90;;;;;;5075396;28;20197;-75
2023/07/18 06:18:44;;;;;;;9.32;4.18;;;17.30;99.90;;;;;;5075064;28;20350;-75
2023/07/18 06:21:10;;;;;;;5.30;4.03;;;17.40;99.90;;;;;;5075272;28;20200;-75
2023/07/18 06:23:37;;;;;;;7.50;3.65;;;17.50;99.90;;;;;;5075182;28;20266;-74
2023/07/18 06:26:04;;;;;;;6.45;3.70;;;17.50;99.90;;;;;;5075139;28;20197;-74
2023/07/18 06:28:31;;;;;;;6.25;4.43;;;17.60;99.90;;;;;;5075093;28;20229;-74
2023/07/18 06:30:59;;;;;;;6.30;4.15;;;17.80;99.90;;;;;;5074833;28;20731;-75
2023/07/18 06:33:26;;;;;;;6.97;4.15;;;17.90;99.90;;;;;;5075121;28;20217;-76
2023/07/18 06:35:53;;;;;;;6.30;4.00;;;18.00;99.90;;;;;;5074905;28;20197;-75
2023/07/18 06:38:20;;;;;;;6.70;4.07;;;18.10;99.90;;;;;;5074961;28;20201;-75
2023/07/18 06:40:46;;;;;;;5.30;4.18;;;18.10;99.90;;;;;;5074748;28;20648;-75
2023/07/18 06:43:13;;;;;;;7.93;4.00;;;18.10;99.90;;;;;;5074676;28;20236;-74
2023/07/18 06:45:40;;;;;;;5.43;3.58;;;18.20;99.90;;;;;;5074623;28;20251;-74
2023/07/18 06:48:08;;;;;;;5.80;4.00;;;18.20;99.90;;;;;;5074508;28;20614;-76
2023/07/18 06:50:35;;;;;;;5.75;3.85;;;18.30;99.90;;;;;;5074570;28;20197;-76
2023/07/18 06:53:01;;;;;;;7.13;4.05;;;18.40;99.90;;;;;;5074568;28;20196;-75
2023/07/18 06:55:28;;;;;;;6.20;3.97;;;18.40;99.90;;;;;;5074366;28;20596;-76
2023/07/18 06:57:55;;;;;;;5.63;4.20;;;18.50;99.90;;;;;;5074494;28;20225;-74
2023/07/18 07:00:22;;;;;;;6.15;3.88;;;18.50;99.90;;;;;;5074400;28;20724;-74
2023/07/18 07:02:49;;;;;;;6.60;3.95;;;18.60;99.90;;;;;;5070705;28;20293;-74
2023/07/18 07:05:17;;;;;;;7.85;4.63;;;18.70;99.90;;;;;;5054492;28;20206;-74
2023/07/18 07:07:43;;;;;;;7.22;4.53;;;18.80;99.90;;;;;;5054242;28;20668;-74
2023/07/18 07:10:10;;;;;;;8.55;4.07;;;18.80;99.90;;;;;;5054366;28;20209;-75
2023/07/18 07:12:37;;;;;;;9.93;4.15;;;18.90;99.90;;;;;;5054007;28;20200;-74
2023/07/18 07:15:04;;;;;;;5.72;3.85;;;19.00;99.90;;;;;;5054136;28;20229;-75
2023/07/18 07:17:31;;;;;;;10.52;4.07;;;19.10;99.90;;;;;;5054175;28;20264;-75
2023/07/18 07:19:58;;;;;;;5.28;3.42;;;19.10;99.90;;;;;;5054107;28;20198;-74
2023/07/18 07:22:26;;;;;;;7.30;4.05;;;19.20;99.90;;;;;;5054155;28;20284;-76
2023/07/18 07:24:53;;;;;;;7.82;3.58;;;19.30;99.90;;;;;;5054104;28;20554;-75
2023/07/18 07:27:20;;;;;;;5.25;3.85;;;19.60;99.90;;;;;;5053868;28;20201;-74
2023/07/18 07:29:47;;;;;;;5.00;3.78;;;19.60;99.90;;;;;;5053978;28;20220;-75
2023/07/18 07:32:13;;;;;;;9.73;3.65;;;19.60;99.90;;;;;;5053769;28;20267;-75
2023/07/18 07:34:41;;;;;;;7.35;3.85;;;19.70;99.90;;;;;;5053785;28;20225;-75
2023/07/18 07:37:08;;;;;;;6.30;3.70;;;19.90;99.90;;;;;;5053720;28;20308;-75
2023/07/18 07:39:36;;;;;;;5.72;3.67;;;19.90;99.90;;;;;;5053528;28;20201;-75
2023/07/18 07:42:03;;;;;;;6.18;3.80;;;20.00;99.90;;;;;;5053479;28;20232;-75
2023/07/18 07:44:30;;;;;;;7.95;3.53;;;20.10;99.90;;;;;;5053463;28;20205;-75
2023/07/18 07:46:57;;;;;;;7.55;3.63;;;20.20;99.90;;;;;;5053620;28;20607;-75
2023/07/18 07:49:24;;;;;;;6.38;3.13;;;20.30;99.90;;;;;;5053383;28;20204;-75
2023/07/18 07:51:50;;;;;;;5.63;3.30;;;20.40;99.90;;;;;;5053376;28;20197;-75
2023/07/18 07:54:17;;;;;;;5.10;3.45;;;20.60;99.90;;;;;;5053215;28;20275;-74
2023/07/18 07:56:45;;;;;;;5.65;3.55;;;20.80;99.90;;;;;;5053142;28;20300;-75
2023/07/18 07:59:11;;;;;;;6.43;3.78;;;21.00;99.90;;;;;;5052605;28;20588;-75
2023/07/18 08:01:38;;;;;;;6.50;3.33;;;21.20;99.90;;;;;;5053347;28;20247;-75
2023/07/18 08:04:05;;;;;;;4.10;3.40;;;21.50;99.90;;;;;;5053293;28;20205;-76
2023/07/18 08:06:31;;;;;;;5.97;3.03;;;21.70;99.90;;;;;;5053147;28;20596;-76
2023/07/18 08:08:58;;;;;;;8.23;3.40;;;22.00;99.90;;;;;;5053001;28;20661;-75
2023/07/18 08:11:25;;;;;;;4.78;3.55;;;22.10;99.90;;;;;;5052736;28;20198;-75
2023/07/18 08:13:53;;;;;;;4.95;3.53;;;22.30;99.90;;;;;;5053145;28;20198;-75
2023/07/18 08:16:20;;;;;;;6.35;3.88;;;22.60;99.90;;;;;;5052943;28;20724;-75
2023/07/18 08:18:46;;;;;;;4.47;3.20;;;22.60;99.90;;;;;;5052903;28;20194;-75
2023/07/18 08:21:13;;;;;;;7.05;3.67;;;22.70;99.70;;;;;;5052774;28;20665;-75
2023/07/18 08:23:40;;;;;;;4.50;3.35;;;22.70;99.90;;;;;;5052704;28;20596;-76
2023/07/18 08:26:07;;;;;;;3.90;3.42;;;22.90;99.90;;;;;;5052874;28;20206;-74
2023/07/18 08:28:33;;;;;;;9.45;3.38;;;23.30;99.90;;;;;;5052690;28;20665;-76
2023/07/18 08:31:04;;;;;;;4.68;3.40;;;23.30;98.30;;;;;;5052748;28;20193;-73
2023/07/18 08:33:31;;;;;;;6.45;3.13;;;23.50;96.70;;;;;;5052769;28;20220;-74
2023/07/18 08:35:58;;;;;;;8.23;3.63;;;23.70;96.40;;;;;;5058228;28;20711;-75
2023/07/18 08:38:24;;;;;;;4.95;3.30;;;23.70;95.80;;;;;;5052826;28;20201;-75
2023/07/18 08:40:51;;;;;;;6.32;2.88;;;23.70;95.20;;;;;;5052980;28;20227;-75
2023/07/18 08:43:19;;;;;;;6.00;2.88;;;24.10;94.90;;;;;;5052730;28;20198;-75
2023/07/18 08:45:47;;;;;;;4.43;2.78;;;24.40;91.40;;;;;;5052585;28;20723;-75
2023/07/18 08:48:14;;;;;;;4.40;3.08;;;24.20;91.80;;;;;;5052336;28;20654;-76
2023/07/18 08:50:42;;;;;;;6.65;3.28;;;24.30;91.80;;;;;;5052773;28;20251;-75
2023/07/18 08:53:09;;;;;;;6.28;3.45;;;24.70;90.00;;;;;;5052658;28;20202;-74
2023/07/18 08:55:36;;;;;;;6.25;3.10;;;24.70;89.70;;;;;;5052348;28;20228;-76
2023/07/18 08:58:03;;;;;;;5.78;3.30;;;24.90;89.00;;;;;;5052217;28;20228;-75
2023/07/18 09:00:30;;;;;;;8.13;3.15;;;24.90;87.10;;;;;;5052311;28;20768;-74
2023/07/18 09:02:56;;;;;;;6.47;3.42;;;25.10;85.30;;;;;;5052311;28;20717;-75
2023/07/18 09:05:32;;;;;;;4.43;3.10;;;25.20;83.70;;;;;;5052221;28;20202;-75
2023/07/18 09:08:00;;;;;;;9.70;3.17;;;25.00;79.40;;;;;;5052400;28;20201;-75
2023/07/18 09:10:27;;;;;;;3.20;2.90;;;24.80;81.60;;;;;;5053299;28;20205;-76
2023/07/18 09:12:54;;;;;;;4.93;3.03;;;25.30;82.00;;;;;;5056335;28;20216;-76
2023/07/18 09:15:21;;;;;;;4.22;2.65;;;25.60;78.20;;;;;;5056419;28;20237;-77
2023/07/18 09:17:49;;;;;;;6.38;2.75;;;25.40;76.20;;;;;;5056189;28;20202;-76
2023/07/18 09:20:18;;;;;;;6.65;2.80;;;25.00;73.70;;;;;;5056338;28;20208;-76
2023/07/18 09:22:46;;;;;;;5.85;3.20;;;25.30;74.30;;;;;;5056440;28;20204;-75
2023/07/18 09:25:14;;;;;;;10.38;3.45;;;25.80;74.30;;;;;;5056172;28;20604;-75
2023/07/18 09:27:41;;;;;;;4.93;3.00;;;26.00;73.40;;;;;;5056096;28;20260;-75
2023/07/18 09:30:09;;;;;;;3.92;2.72;;;26.10;72.50;;;;;;5056007;28;20203;-75
2023/07/18 09:32:36;;;;;;;6.43;3.10;;;26.40;70.90;;;;;;5056199;28;20197;-76
2023/07/18 09:35:03;;;;;;;6.80;3.38;;;26.10;68.80;;;;;;5056054;28;20271;-76
2023/07/18 09:37:30;;;;;;;3.97;2.90;;;26.40;67.40;;;;;;5055928;28;20202;-75
2023/07/18 09:39:58;;;;;;;7.05;2.92;;;26.10;66.70;;;;;;5056195;28;20201;-75
2023/07/18 09:42:25;;;;;;;4.55;3.17;;;26.10;66.70;;;;;;5055975;28;20198;-75
2023/07/18 09:44:52;;;;;;;3.70;2.70;;;26.80;66.20;;;;;;5055625;28;20198;-75
2023/07/18 09:47:19;;;;;;;7.32;3.33;;;27.40;66.90;;;;;;5055899;28;20259;-76
2023/07/18 09:49:46;;;;;;;7.05;3.25;;;27.60;61.70;;;;;;5055931;28;20263;-75
2023/07/18 09:52:13;;;;;;;4.95;2.90;;;27.50;61.30;;;;;;5055950;28;20205;-75
2023/07/18 09:54:41;;;;;;;6.80;2.70;;;27.50;61.00;;;;;;5055659;28;20375;-74
2023/07/18 09:57:10;;;;;;;4.28;3.13;;;27.70;59.30;;;;;;5055396;28;20229;-75
2023/07/18 09:59:38;;;;;;;3.85;2.60;;;26.50;59.10;;;;;;5055390;28;20674;-74
2023/07/18 10:02:06;;;;;;;3.88;2.58;;;26.60;59.80;;;;;;5055378;28;20653;-74
2023/07/18 10:04:33;;;;;;;4.85;2.65;;;27.20;59.50;;;;;;5055477;28;20202;-75
2023/07/18 10:07:01;;;;;;;4.97;2.67;;;27.30;58.70;;;;;;5055386;28;20198;-75
2023/07/18 10:09:28;;;;;;;3.67;2.45;;;27.90;58.10;;;;;;5056878;28;20223;-75
2023/07/18 10:12:09;;;;;;;5.63;2.92;;;28.30;58.10;;;;;;5065295;28;20197;-75
2023/07/18 10:14:50;;;;;;;4.75;3.20;;;28.40;57.40;;;;;;5074918;28;20260;-76
2023/07/18 10:17:25;;;;;;;4.40;3.15;;;27.70;57.10;;;;;;5059974;28;20284;-76
2023/07/18 10:19:52;;;;;;;7.70;3.35;;;26.90;58.20;;;;;;5066225;28;20246;-75
2023/07/18 10:22:26;;;;;;;6.50;3.33;;;26.70;58.40;;;;;;5074238;28;20200;-75
2023/07/18 10:24:52;;;;;;;7.25;3.42;;;27.40;58.80;;;;;;5074693;28;20207;-75
2023/07/18 10:27:24;;;;;;;4.47;3.10;;;27.00;57.40;;;;;;5074861;28;20197;-75
2023/07/18 10:30:03;;;;;;;3.17;2.85;;;27.70;56.90;;;;;;5074851;28;20197;-75
2023/07/18 10:32:32;;;;;;;3.15;2.78;;;27.60;56.90;;;;;;5074683;28;20224;-75
2023/07/18 10:34:59;;;;;;;4.20;3.10;;;28.10;56.70;;;;;;5074316;28;20217;-76
2023/07/18 10:37:26;;;;;;;7.78;3.55;;;28.50;55.70;;;;;;5074486;28;20599;-75
2023/07/18 10:39:54;;;;;;;4.63;3.50;;;28.50;55.10;;;;;;5074484;28;20231;-75
2023/07/18 10:42:25;;;;;;;4.55;3.10;;;29.30;54.70;;;;;;5074299;28;20262;-75
2023/07/18 10:44:56;;;;;;;5.47;3.08;;;30.10;53.20;;;;;;5074199;28;20237;-75
2023/07/18 10:47:22;;;;;;;5.75;3.00;;;30.50;51.30;;;;;;5074858;28;20197;-75
2023/07/18 10:49:49;;;;;;;4.97;3.10;;;30.00;50.80;;;;;;5094919;28;20226;-75
2023/07/18 10:52:17;;;;;;;8.68;3.72;;;29.60;50.50;;;;;;5094767;28;20222;-75
2023/07/18 10:54:45;;;;;;;5.03;3.13;;;29.10;51.20;;;;;;5094698;28;20192;-75
2023/07/18 10:57:12;;;;;;;5.10;2.78;;;30.20;50.70;;;;;;5094544;28;20323;-76
2023/07/18 10:59:42;;;;;;;4.53;2.97;;;30.60;47.70;;;;;;5075736;28;20270;-75
2023/07/18 11:02:09;;;;;;;3.65;2.80;;;30.50;47.60;;;;;;5074355;28;20197;-75
2023/07/18 11:04:35;;;;;;;3.88;2.97;;;32.00;47.20;;;;;;5068049;28;20198;-75
2023/07/18 11:07:02;;;;;;;12.32;3.25;;;33.10;45.80;;;;;;5070675;28;20201;-76
2023/07/18 11:09:29;;;;;;;3.45;2.90;;;34.30;42.90;;;;;;5060281;28;20248;-75
2023/07/18 11:11:55;;;;;;;5.47;2.80;;;33.70;42.20;;;;;;5074103;28;20602;-74
2023/07/18 11:14:23;;;;;;;4.63;2.80;;;32.90;41.00;;;;;;5072777;28;20197;-76
2023/07/18 11:16:52;;;;;;;5.13;2.88;;;33.00;42.00;;;;;;5073024;28;20228;-75
2023/07/18 11:19:20;;;;;;;3.80;2.83;;;31.80;40.70;;;;;;5073878;28;20196;-77
2023/07/18 11:21:47;;;;;;;3.88;3.03;;;31.80;42.30;;;;;;5074058;28;20204;-75
2023/07/18 11:24:13;;;;;;;3.65;2.80;;;32.20;42.10;;;;;;5074328;28;20250;-74
2023/07/18 11:26:40;;;;;;;6.68;3.63;;;32.60;41.00;;;;;;5074049;28;20262;-74
2023/07/18 11:29:07;;;;;;;4.65;2.97;;;33.30;41.20;;;;;;5073486;28;20200;-77
2023/07/18 11:31:40;;;;;;;5.95;3.17;;;34.20;39.80;;;;;;5073842;28;20661;-77
2023/07/18 11:34:08;;;;;;;4.18;2.83;;;33.90;36.80;;;;;;5072542;28;20276;-77
2023/07/18 11:36:36;;;;;;;3.17;2.88;;;33.70;36.10;;;;;;5073722;28;20235;-77
2023/07/18 11:39:04;;;;;;;6.05;3.30;;;32.80;36.70;;;;;;5073619;28;20193;-77
2023/07/18 11:41:35;;;;;;;4.50;3.03;;;32.20;37.30;;;;;;5073612;28;20197;-77
2023/07/18 11:44:02;;;;;;;4.15;2.88;;;33.10;37.60;;;;;;5073721;28;20249;-78
2023/07/18 11:46:39;;;;;;;4.30;2.97;;;33.30;36.20;;;;;;5073675;28;20206;-77
2023/07/18 11:49:08;;;;;;;4.57;2.72;;;34.10;35.90;;;;;;5073418;28;20283;-77
2023/07/18 11:51:35;;;;;;;3.72;3.15;;;35.40;34.30;;;;;;5073346;28;20250;-78
2023/07/18 11:54:02;;;;;;;4.05;2.80;;;35.00;33.30;;;;;;5073410;28;20211;-78
2023/07/18 11:56:29;;;;;;;3.63;2.80;;;32.60;33.60;;;;;;5073287;28;20235;-77
2023/07/18 11:58:56;;;;;;;3.95;3.15;;;32.40;35.20;;;;;;5073438;28;20196;-77
2023/07/18 12:01:23;;;;;;;3.28;2.90;;;31.60;35.50;;;;;;5073326;28;20230;-78
2023/07/18 12:03:51;;;;;;;5.63;2.85;;;31.30;36.20;;;;;;5073180;28;20200;-77
2023/07/18 12:06:20;;;;;;;5.85;2.90;;;31.60;36.90;;;;;;5073123;28;20288;-78
2023/07/18 12:08:47;;;;;;;3.22;2.80;;;32.00;36.50;;;;;;5073158;28;20201;-78
2023/07/18 12:11:13;;;;;;;3.85;3.25;;;32.00;36.10;;;;;;5073368;28;20309;-72
2023/07/18 12:13:40;;;;;;;3.03;2.53;;;30.60;36.20;;;;;;5072918;28;20251;-72
2023/07/18 12:16:07;;;;;;;8.77;3.10;;;30.90;36.80;;;;;;5073261;28;20282;-72
2023/07/18 12:18:34;;;;;;;6.65;3.03;;;29.40;37.00;;;;;;5072930;28;20250;-71
2023/07/18 12:21:00;;;;;;;4.38;3.00;;;28.80;38.70;;;;;;5073010;28;20266;-72
2023/07/18 12:23:28;;;;;;;7.38;3.50;;;28.60;39.60;;;;;;5073350;28;20627;-71
2023/07/18 12:25:55;;;;;;;5.97;3.20;;;28.70;39.80;;;;;;5073059;28;20326;-72
2023/07/18 12:28:22;;;;;;;5.07;3.22;;;28.50;39.80;;;;;;5072652;28;20930;-72
2023/07/18 12:30:48;;;;;;;6.70;3.22;;;27.60;41.30;;;;;;5072873;28;20201;-72
2023/07/18 12:33:15;;;;;;;5.05;3.45;;;27.30;41.50;;;;;;5072889;28;20200;-72
2023/07/18 12:35:42;;;;;;;3.55;3.15;;;27.50;41.70;;;;;;5072694;28;20227;-72
2023/07/18 12:38:10;;;;;;;5.07;3.22;;;27.40;41.90;;;;;;5073016;28;20197;-72
2023/07/18 12:40:39;;;;;;;5.45;3.10;;;28.10;41.10;;;;;;5072865;28;20225;-72
2023/07/18 12:43:06;;;;;;;5.18;3.35;;;28.70;41.10;;;;;;5072652;28;20538;-72
2023/07/18 12:45:33;;;;;;;7.72;3.47;;;28.30;40.70;;;;;;5072470;28;20204;-72